Time;durP1;ratioP1;P1;durP2;ratioP2;P2;SDS_P1;SDS_P2;PMS_P1;PMS_P2;Temp;Humidity;BMP_temperature;BMP_pressure;BME280_temperature;BME280_humidity;BME280_pressure;Samples;Min_cycle;Max_cycle;Signal;HPM_P1;HPM_P2
2022/06/13 00:00:13;;;;;;;5.65;3.38;;;;;;;15.68;80.19;93905.03;5105162;28;20020;-81
2022/06/13 00:02:39;;;;;;;4.35;3.50;;;;;;;15.61;80.26;93906.41;5105509;28;20304;-81
2022/06/13 00:05:07;;;;;;;4.50;3.25;;;;;;;15.65;79.97;93903.78;5087175;28;20066;-81
2022/06/13 00:07:33;;;;;;;5.00;3.72;;;;;;;15.59;79.64;93897.09;5105298;28;20071;-81
2022/06/13 00:09:58;;;;;;;5.60;3.40;;;;;;;15.57;79.86;93904.72;5105008;28;20040;-83
2022/06/13 00:12:24;;;;;;;6.07;3.28;;;;;;;15.56;79.65;93901.25;5105260;28;20020;-85
2022/06/13 00:14:50;;;;;;;8.55;3.42;;;;;;;15.57;79.79;93900.16;5105093;28;20222;-85
2022/06/13 00:17:15;;;;;;;7.38;4.20;;;;;;;15.55;79.41;93897.03;5105229;28;20098;-85
2022/06/13 00:19:41;;;;;;;10.85;3.53;;;;;;;15.51;80.04;93906.09;5105396;28;20016;-86
2022/06/13 00:22:06;;;;;;;7.57;3.10;;;;;;;15.51;80.05;93912.25;5105317;28;20036;-82
2022/06/13 00:24:32;;;;;;;7.18;3.22;;;;;;;15.54;79.49;93910.78;5105085;28;20058;-85
2022/06/13 00:26:58;;;;;;;19.70;3.58;;;;;;;15.54;79.51;93924.22;5104984;28;20019;-84
2022/06/13 00:29:23;;;;;;;12.55;3.88;;;;;;;15.53;79.94;93919.97;5104886;28;20226;-84
2022/06/13 00:31:49;;;;;;;5.22;3.50;;;;;;;15.58;79.47;93922.41;5086872;28;20051;-84
2022/06/13 00:34:14;;;;;;;8.73;3.95;;;;;;;15.59;79.71;93926.66;5104778;28;20043;-82
2022/06/13 00:36:40;;;;;;;5.30;3.70;;;;;;;15.59;79.88;93923.97;5104928;28;20299;-85
2022/06/13 00:39:05;;;;;;;5.55;3.83;;;;;;;15.64;79.83;93931.78;5104753;28;20051;-85
2022/06/13 00:41:35;;;;;;;6.25;4.15;;;;;;;15.67;79.69;93925.72;5087052;28;20035;-84
2022/06/13 00:44:01;;;;;;;8.48;3.33;;;;;;;15.67;79.73;93925.72;5104658;28;20223;-81
2022/06/13 00:46:34;;;;;;;7.20;3.35;;;;;;;15.68;79.29;93931.88;5104930;28;20016;-86
2022/06/13 00:49:13;;;;;;;4.57;3.42;;;;;;;15.57;79.91;93926.22;5105023;28;20016;-83
2022/06/13 00:51:59;;;;;;;5.68;3.78;;;;;;;15.48;80.72;93920.22;5086729;28;20392;-82
2022/06/13 00:54:25;;;;;;;6.45;3.55;;;;;;;15.44;80.92;93920.09;5104833;28;20027;-82
2022/06/13 00:56:51;;;;;;;10.32;4.05;;;;;;;15.41;81.07;93918.91;5105026;28;20042;-83
2022/06/13 00:59:20;;;;;;;7.68;3.88;;;;;;;15.40;80.88;93911.19;5104623;28;20234;-82
2022/06/13 01:01:46;;;;;;;5.80;3.83;;;;;;;15.34;81.15;93913.31;5104259;28;20023;-82
2022/06/13 01:04:13;;;;;;;7.70;3.92;;;;;;;15.38;81.12;93914.19;5104241;28;20015;-82
2022/06/13 01:06:43;;;;;;;6.55;4.10;;;;;;;15.42;81.21;93914.31;5104104;28;20016;-82
2022/06/13 01:09:11;;;;;;;6.70;3.88;;;;;;;15.43;80.91;93911.28;5104158;28;20028;-82
2022/06/13 01:11:45;;;;;;;7.00;3.75;;;;;;;15.44;80.79;93918.19;5104301;28;20019;-82
2022/06/13 01:14:26;;;;;;;6.28;3.53;;;;;;;15.41;80.67;93913.53;5086112;28;20027;-83
2022/06/13 01:17:27;;;;;;;6.47;3.78;;;;;;;15.31;81.59;93903.28;5085571;28;20055;-82
2022/06/13 01:20:11;;;;;;;10.23;3.70;;;;;;;15.31;81.99;93905.19;5081484;28;20322;-82
2022/06/13 01:23:07;;;;;;;9.48;4.00;;;;;;;15.25;81.98;93902.72;5103274;28;20026;-82
2022/06/13 01:25:44;;;;;;;7.78;3.88;;;;;;;15.24;82.43;93897.69;5103704;28;20055;-82
2022/06/13 01:28:28;;;;;;;5.22;3.67;;;;;;;15.24;82.72;93897.69;5103468;28;20099;-82
2022/06/13 01:30:56;;;;;;;6.00;4.03;;;;;;;15.21;82.78;93904.53;5102337;28;20199;-83
2022/06/13 01:33:37;;;;;;;6.38;4.28;;;;;;;15.24;83.03;93903.06;5103684;28;20419;-83
2022/06/13 01:36:29;;;;;;;6.93;4.97;;;;;;;15.26;82.95;93898.13;5103890;28;20058;-82
2022/06/13 01:39:21;;;;;;;;;;;;;;;15.26;82.77;93898.13;5103783;28;20277;-82
2022/06/13 01:42:05;;;;;;;13.52;4.65;;;;;;;15.18;83.77;93891.81;5072031;28;19904;-83
2022/06/13 01:44:45;;;;;;;6.38;4.65;;;;;;;15.20;83.85;93904.88;5085337;28;20047;-82
2022/06/13 01:47:20;;;;;;;6.97;5.32;;;;;;;15.21;83.09;93907.22;5103421;28;20034;-82
2022/06/13 01:50:12;;;;;;;10.40;5.13;;;;;;;15.20;83.28;93905.66;5103471;28;20043;-82
2022/06/13 01:52:50;;;;;;;7.38;4.70;;;;;;;15.27;83.32;93915.81;5103389;28;20203;-81
2022/06/13 01:55:24;;;;;;;9.75;4.85;;;;;;;15.29;83.36;93923.53;5103660;28;20047;-82
2022/06/13 01:58:08;;;;;;;6.10;4.68;;;;;;;15.37;83.43;93923.38;5103663;28;20024;-82
2022/06/13 02:00:35;;;;;;;11.52;4.95;;;;;;;15.39;82.65;93909.63;5103591;28;20020;-83
2022/06/13 02:03:15;;;;;;;5.90;4.05;;;;;;;15.41;82.49;93908.16;5103136;28;20020;-82
2022/06/13 02:05:53;;;;;;;7.53;4.85;;;;;;;15.35;83.18;93914.13;5103212;28;20039;-81
2022/06/13 02:08:33;;;;;;;6.22;4.18;;;;;;;15.36;82.68;93921.81;5103238;28;20218;-84
2022/06/13 02:11:05;;;;;;;6.10;4.05;;;;;;;15.32;82.82;93926.31;5103071;28;20020;-83
2022/06/13 02:14:29;;;;;;;8.32;5.07;;;;;;;15.31;82.85;93919.38;5085184;28;20027;-85
2022/06/13 02:17:01;;;;;;;9.52;5.25;;;;;;;15.24;83.30;93919.16;5021454;28;20037;-85
2022/06/13 02:19:34;;;;;;;6.05;4.43;;;;;;;15.23;82.98;93918.38;5089546;28;20272;-84
2022/06/13 02:22:07;;;;;;;9.25;5.25;;;;;;;15.31;83.60;93918.59;5103169;28;20318;-84
2022/06/13 02:24:38;;;;;;;10.48;4.70;;;;;;;15.32;83.61;93920.16;5103254;28;20030;-84
2022/06/13 02:27:05;;;;;;;8.63;4.85;;;;;;;15.35;83.60;93919.50;5085095;28;20023;-84
2022/06/13 02:29:47;;;;;;;8.70;4.43;;;;;;;15.37;83.22;93928.75;5103289;28;20024;-84
2022/06/13 02:32:19;;;;;;;7.75;4.18;;;;;;;15.36;82.23;93932.56;5102941;28;20024;-85
2022/06/13 02:35:14;;;;;;;5.40;4.10;;;;;;;15.36;81.90;93926.41;5088559;28;20055;-84
2022/06/13 02:37:45;;;;;;;8.60;4.15;;;;;;;15.28;82.21;93916.59;5088112;28;20077;-84
2022/06/13 02:40:33;;;;;;;11.85;4.00;;;;;;;15.23;82.31;93923.00;5107001;28;20257;-86
2022/06/13 02:43:07;;;;;;;8.25;4.07;;;;;;;15.16;82.70;93925.47;5107181;28;20024;-83
2022/06/13 02:45:43;;;;;;;15.02;4.13;;;;;;;15.13;82.70;93918.09;5107148;28;20050;-85
2022/06/13 02:48:23;;;;;;;11.80;3.83;;;;;;;15.11;83.06;93921.13;5106614;28;20016;-85
2022/06/13 02:51:12;;;;;;;9.35;4.53;;;;;;;15.13;83.42;93928.84;5106681;28;20026;-85
2022/06/13 02:54:16;;;;;;;8.40;4.10;;;;;;;15.14;83.29;93930.38;5088879;28;20069;-84
2022/06/13 03:00:04;;;;;;;7.38;4.20;;;;;;;15.16;82.92;93928.13;5106747;28;20061;-85
2022/06/13 03:02:52;;;;;;;8.75;4.10;;;;;;;15.18;83.18;93932.06;5088323;28;20314;-85
2022/06/13 03:05:20;;;;;;;6.40;4.20;;;;;;;15.23;82.89;93933.72;5106526;28;20016;-83
2022/06/13 03:07:56;;;;;;;9.85;4.30;;;;;;;15.29;82.36;93937.75;5088193;28;20024;-84
2022/06/13 03:10:29;;;;;;;15.60;4.20;;;;;;;15.35;81.85;93939.06;5106232;28;20054;-83
2022/06/13 03:13:03;;;;;;;9.80;3.78;;;;;;;15.40;81.52;93933.44;5105963;28;20020;-84
2022/06/13 03:15:51;;;;;;;7.22;4.15;;;;;;;15.39;81.71;93939.16;5106082;28;20027;-84
2022/06/13 03:18:23;;;;;;;12.40;4.68;;;;;;;15.45;81.78;93941.25;5088164;28;20072;-84
2022/06/13 03:21:04;;;;;;;8.98;4.30;;;;;;;15.52;81.66;93950.63;5106315;28;20053;-85
2022/06/13 03:23:44;;;;;;;12.95;4.78;;;;;;;15.62;81.84;93947.47;5106249;28;20031;-86
2022/06/13 03:26:15;;;;;;;10.65;4.20;;;;;;;15.72;81.26;93948.88;5106259;28;20028;-86
2022/06/13 03:28:51;;;;;;;7.03;4.03;;;;;;;15.82;80.75;93954.56;5106443;28;20024;-87
2022/06/13 03:31:24;;;;;;;7.35;3.85;;;;;;;15.91;80.35;93965.16;5106252;28;20020;-86
2022/06/13 03:33:55;;;;;;;7.80;4.13;;;;;;;15.87;80.58;93958.91;5106125;28;20020;-86
2022/06/13 03:36:29;;;;;;;6.50;4.00;;;;;;;15.88;80.71;93948.97;5088049;28;20020;-87
2022/06/13 03:39:05;;;;;;;5.43;3.72;;;;;;;15.89;81.11;93953.97;5106063;28;20348;-86
2022/06/13 03:41:36;;;;;;;8.65;4.28;;;;;;;15.94;81.21;93959.09;5106023;28;20088;-88
2022/06/13 03:44:14;;;;;;;9.20;4.23;;;;;;;16.02;81.19;93960.09;5105976;28;20066;-89
2022/06/13 03:47:13;;;;;;;8.25;4.95;;;;;;;16.07;80.93;93959.03;5106260;28;20263;-89
2022/06/13 03:49:44;;;;;;;9.35;4.45;;;;;;;16.12;81.39;93956.88;5084825;28;20032;-88
2022/06/13 03:52:13;;;;;;;7.28;4.38;;;;;;;16.22;81.29;93960.94;5106800;28;20031;-89
2022/06/13 03:54:53;;;;;;;7.80;4.28;;;;;;;16.30;80.87;93972.66;5106375;28;20028;-89
2022/06/13 03:57:31;;;;;;;6.47;4.50;;;;;;;16.35;80.89;93965.13;5105802;28;20085;-87
2022/06/13 04:00:03;;;;;;;10.05;4.50;;;;;;;16.39;80.87;93976.00;5105831;28;20240;-86
2022/06/13 04:02:31;;;;;;;7.13;5.10;;;;;;;16.42;81.19;93969.91;5105611;28;20035;-85
2022/06/13 04:04:57;;;;;;;7.72;4.97;;;;;;;16.43;81.37;93966.88;5105429;28;20024;-84
2022/06/13 04:07:26;;;;;;;7.07;5.18;;;;;;;16.50;81.52;93974.31;5105079;28;20020;-84
2022/06/13 04:09:57;;;;;;;10.55;5.20;;;;;;;16.55;81.51;93960.63;5105545;28;20071;-85
2022/06/13 04:12:26;;;;;;;7.33;4.97;;;;;;;16.60;81.26;93971.13;5105464;28;20074;-86
2022/06/13 04:14:51;;;;;;;10.73;5.32;;;;;;;16.66;81.19;93971.63;5105548;28;20089;-86
2022/06/13 04:17:32;;;;;;;11.75;4.45;;;;;;;16.63;81.87;93959.66;5087094;28;20373;-86
2022/06/13 04:20:20;;;;;;;8.45;5.18;;;;;;;16.62;81.84;93973.47;5105253;28;20028;-85
2022/06/13 04:22:57;;;;;;;14.13;5.97;;;;;;;16.63;81.66;93964.28;5105483;28;20022;-84
2022/06/13 04:25:28;;;;;;;11.07;7.03;;;;;;;16.59;82.39;93966.09;5105194;28;20016;-87
2022/06/13 04:28:03;;;;;;;10.93;5.57;;;;;;;16.65;82.34;93967.41;5105299;28;20061;-87
2022/06/13 04:30:32;;;;;;;14.57;5.07;;;;;;;16.69;83.05;93968.25;5104851;28;20023;-87
2022/06/13 04:33:14;;;;;;;11.73;6.43;;;;;;;16.72;82.33;93962.16;5104875;28;20024;-87
2022/06/13 04:35:41;;;;;;;7.18;5.82;;;;;;;16.75;83.01;93958.78;5105404;28;20027;-88
2022/06/13 04:38:11;;;;;;;8.45;6.20;;;;;;;16.77;82.01;93958.41;5105282;28;20027;-88
2022/06/13 04:40:40;;;;;;;12.23;5.97;;;;;;;16.77;82.36;93963.81;5104901;28;20217;-87
2022/06/13 04:43:09;;;;;;;8.70;6.47;;;;;;;16.80;82.44;93958.50;5104562;28;20389;-88
2022/06/13 04:45:56;;;;;;;10.57;6.90;;;;;;;16.87;82.61;93962.53;5104573;28;20043;-89
2022/06/13 04:48:22;;;;;;;8.98;6.55;;;;;;;16.87;81.69;93963.28;5105177;28;20095;-88
2022/06/13 04:50:52;;;;;;;10.65;6.53;;;;;;;16.92;81.30;93957.66;5086829;28;20016;-89
2022/06/13 04:53:31;;;;;;;9.90;6.55;;;;;;;17.00;81.33;93951.31;5086989;28;20020;-88
2022/06/13 04:55:59;;;;;;;14.45;7.25;;;;;;;17.04;81.16;93949.47;5104045;28;20213;-89
2022/06/13 04:58:31;;;;;;;12.10;7.00;;;;;;;17.14;80.99;93958.16;5105672;28;20083;-84
2022/06/13 05:01:11;;;;;;;11.13;6.80;;;;;;;17.22;80.98;93946.38;5104580;28;20016;-83
2022/06/13 05:03:38;;;;;;;9.50;7.60;;;;;;;17.30;81.04;93953.50;5104373;28;20055;-83
2022/06/13 05:06:20;;;;;;;10.27;6.00;;;;;;;17.36;81.54;93954.78;5105076;28;20031;-86
2022/06/13 05:08:51;;;;;;;12.30;6.78;;;;;;;17.45;81.59;93955.31;5104351;28;20039;-83
2022/06/13 05:11:22;;;;;;;11.95;6.50;;;;;;;17.56;80.79;93952.06;5103949;28;20058;-84
2022/06/13 05:13:52;;;;;;;11.15;7.90;;;;;;;17.54;80.57;93954.34;5103913;28;20028;-84
2022/06/13 05:16:20;;;;;;;10.50;7.22;;;;;;;17.58;81.04;93947.09;5102292;28;20077;-74
2022/06/13 05:19:07;;;;;;;11.57;7.90;;;;;;;17.64;81.58;93948.38;5101396;28;20226;-74
2022/06/13 05:21:49;;;;;;;10.23;7.38;;;;;;;17.68;81.79;93951.16;5101422;28;20064;-75
2022/06/13 05:24:29;;;;;;;17.27;8.15;;;;;;;17.75;81.61;93952.06;5101271;28;20024;-75
2022/06/13 05:26:54;;;;;;;11.77;6.40;;;;;;;17.80;79.95;93956.38;5101541;28;20065;-75
2022/06/13 05:29:20;;;;;;;11.70;7.72;;;;;;;17.90;79.88;93963.16;5101317;28;20019;-75
2022/06/13 05:31:45;;;;;;;13.45;7.82;;;;;;;17.93;79.63;93959.72;5101257;28;20054;-74
2022/06/13 05:34:23;;;;;;;19.35;8.30;;;;;;;17.97;79.54;93960.56;5101734;28;20094;-74
2022/06/13 05:36:48;;;;;;;16.58;9.00;;;;;;;17.97;79.61;93960.56;5103062;28;20036;-74
2022/06/13 05:39:14;;;;;;;11.48;8.57;;;;;;;18.05;79.40;93954.19;5102890;28;20086;-74
2022/06/13 05:41:39;;;;;;;19.30;9.63;;;;;;;18.10;79.34;93966.63;5103317;28;20068;-74
2022/06/13 05:44:06;;;;;;;11.63;7.97;;;;;;;18.15;78.35;93961.69;5103010;28;20051;-74
2022/06/13 05:46:37;;;;;;;13.57;8.63;;;;;;;18.21;78.69;93952.16;5102844;28;20023;-74
2022/06/13 05:49:03;;;;;;;11.15;7.88;;;;;;;18.22;78.25;93958.34;5102687;28;20028;-74
2022/06/13 05:51:29;;;;;;;10.65;7.53;;;;;;;18.24;78.22;93953.38;5102462;28;20054;-74
2022/06/13 05:53:57;;;;;;;11.13;7.60;;;;;;;18.24;77.23;93962.25;5084617;28;20024;-76
2022/06/13 05:56:24;;;;;;;16.05;7.75;;;;;;;18.28;77.70;93958.81;5102846;28;20024;-73
2022/06/13 05:58:50;;;;;;;12.35;7.72;;;;;;;18.19;78.34;93954.44;5102823;28;20020;-73
2022/06/13 06:01:15;;;;;;;15.80;7.38;;;;;;;18.28;76.05;93953.41;5102827;28;20324;-74
2022/06/13 06:03:41;;;;;;;12.95;8.73;;;;;;;18.33;77.65;93955.84;5102923;28;20212;-74
2022/06/13 06:06:11;;;;;;;14.32;7.93;;;;;;;18.33;77.44;93953.91;5102698;28;20020;-73
2022/06/13 06:08:37;;;;;;;12.18;7.82;;;;;;;18.33;78.66;93953.13;5106364;28;20062;-73
2022/06/13 06:11:03;;;;;;;17.23;7.53;;;;;;;18.37;77.21;93959.38;5106861;28;20024;-73
2022/06/13 06:13:30;;;;;;;13.73;7.07;;;;;;;18.36;76.68;93958.59;5107058;28;20038;-72
2022/06/13 06:15:57;;;;;;;10.32;7.43;;;;;;;18.29;76.67;93960.38;5106699;28;20254;-73
2022/06/13 06:18:24;;;;;;;10.93;6.35;;;;;;;18.41;76.81;93968.31;5106690;28;20019;-73
2022/06/13 06:20:50;;;;;;;10.02;7.00;;;;;;;18.48;76.99;93965.75;5106659;28;20236;-73
2022/06/13 06:23:16;;;;;;;10.50;6.65;;;;;;;18.52;76.61;93963.88;5106717;28;20008;-73
2022/06/13 06:25:42;;;;;;;10.85;6.30;;;;;;;18.66;75.42;93960.59;5106980;28;20278;-73
2022/06/13 06:28:18;;;;;;;13.35;6.70;;;;;;;18.71;74.80;93965.72;5106880;28;20215;-73
2022/06/13 06:30:43;;;;;;;11.70;6.50;;;;;;;18.72;74.57;93979.97;5106489;28;20020;-73
2022/06/13 06:33:09;;;;;;;10.10;5.97;;;;;;;18.82;74.65;93977.47;5107168;28;20031;-84
2022/06/13 06:35:35;;;;;;;9.88;6.22;;;;;;;18.92;74.77;93970.69;5109391;28;20031;-83
2022/06/13 06:38:01;;;;;;;12.05;6.22;;;;;;;19.01;73.98;93975.81;5107858;28;20016;-84
2022/06/13 06:40:28;;;;;;;9.55;5.88;;;;;;;19.05;73.33;93976.69;5107727;28;20117;-83
2022/06/13 06:42:54;;;;;;;21.52;5.47;;;;;;;19.08;73.18;93978.66;5107174;28;20016;-84
2022/06/13 06:45:21;;;;;;;9.77;5.80;;;;;;;19.12;71.38;93978.69;5107614;28;20107;-83
2022/06/13 06:47:46;;;;;;;7.32;6.28;;;;;;;19.06;70.84;93982.84;5089417;28;20215;-84
2022/06/13 06:50:14;;;;;;;7.80;5.13;;;;;;;19.15;69.43;93977.97;5088968;28;20023;-83
2022/06/13 06:52:40;;;;;;;9.55;4.97;;;;;;;19.17;70.54;93972.97;5107004;28;20020;-82
2022/06/13 07:00:38;;;;;;;9.85;5.47;;;;;;;19.38;69.98;93981.38;5106649;28;20341;-81
2022/06/13 07:03:03;;;;;;;7.60;4.63;;;;;;;19.41;68.27;93977.16;5088623;28;20020;-81
2022/06/13 07:05:28;;;;;;;4.78;3.70;;;;;;;19.47;66.75;93973.00;5106746;28;20019;-82
2022/06/13 07:07:54;;;;;;;6.72;4.43;;;;;;;19.59;66.02;93969.28;5106543;28;20012;-82
2022/06/13 07:10:19;;;;;;;5.13;3.63;;;;;;;19.71;64.38;93968.31;5106356;28;20065;-83
2022/06/13 07:12:45;;;;;;;8.25;3.47;;;;;;;19.75;63.58;93969.91;5106099;28;20019;-82
2022/06/13 07:15:13;;;;;;;5.38;3.70;;;;;;;19.80;63.30;93977.69;5106464;28;20022;-82
2022/06/13 07:17:39;;;;;;;7.90;3.85;;;;;;;19.90;63.75;93970.06;5106749;28;20399;-82
2022/06/13 07:20:05;;;;;;;9.80;4.07;;;;;;;19.92;63.55;93968.53;5105642;28;20016;-80
2022/06/13 07:22:30;;;;;;;6.70;3.35;;;;;;;20.09;63.28;93969.09;5106451;28;20016;-82
2022/06/13 07:24:56;;;;;;;9.60;4.05;;;;;;;20.22;64.18;93975.81;5106286;28;20026;-81
2022/06/13 07:27:21;;;;;;;7.00;4.00;;;;;;;20.38;62.96;93970.19;5106124;28;20314;-81
2022/06/13 07:29:47;;;;;;;8.15;3.88;;;;;;;20.32;62.17;93971.66;5106143;28;20045;-86
2022/06/13 07:32:16;;;;;;;11.65;4.20;;;;;;;20.39;61.94;93969.03;5106148;28;20020;-82
2022/06/13 07:34:42;;;;;;;10.00;3.70;;;;;;;20.46;63.08;93973.75;5106401;28;20031;-85
2022/06/13 07:37:12;;;;;;;7.10;3.88;;;;;;;20.58;62.90;93966.13;5106272;28;20024;-82
2022/06/13 07:39:37;;;;;;;8.52;4.13;;;;;;;20.76;63.10;93973.63;5106179;28;20016;-85
2022/06/13 07:42:04;;;;;;;7.65;4.10;;;;;;;20.85;63.12;93979.50;5105716;28;20360;-86
2022/06/13 07:44:38;;;;;;;7.43;4.95;;;;;;;20.89;62.96;93974.91;5105252;28;20243;-81
2022/06/13 07:47:04;;;;;;;9.65;5.00;;;;;;;20.97;62.73;93973.03;5104964;28;20074;-84
2022/06/13 07:49:30;;;;;;;8.90;4.70;;;;;;;21.06;62.40;93984.31;5104914;28;20020;-83
2022/06/13 07:51:56;;;;;;;29.15;8.93;;;;;;;21.16;61.61;93977.41;5105117;28;20052;-84
2022/06/13 07:54:22;;;;;;;46.85;9.75;;;;;;;21.13;61.16;93976.22;5105158;28;20025;-85
2022/06/13 07:56:48;;;;;;;11.50;5.20;;;;;;;21.23;60.70;93978.22;5105060;28;20024;-81
2022/06/13 07:59:26;;;;;;;6.75;3.85;;;;;;;21.37;60.33;93971.31;5105120;28;20377;-83
2022/06/13 08:01:52;;;;;;;5.53;3.88;;;;;;;21.36;58.80;93969.78;5105168;28;20191;-83
2022/06/13 08:04:17;;;;;;;13.25;5.82;;;;;;;21.40;60.37;93974.06;5104944;28;20031;-82
2022/06/13 08:06:43;;;;;;;9.82;3.80;;;;;;;21.40;60.36;93976.00;5105024;28;20028;-83
2022/06/13 08:09:10;;;;;;;9.77;4.30;;;;;;;21.48;59.41;93980.34;5105120;28;20024;-84
2022/06/13 08:11:43;;;;;;;7.45;4.35;;;;;;;21.46;59.70;93973.75;5104909;28;20020;-82
2022/06/13 08:14:09;;;;;;;6.57;3.65;;;;;;;21.55;58.35;93974.94;5104752;28;20016;-83
2022/06/13 08:16:35;;;;;;;27.80;7.05;;;;;;;21.58;56.87;93985.03;5086697;28;20023;-82
2022/06/13 08:19:03;;;;;;;10.65;4.03;;;;;;;21.68;57.31;93985.47;5104398;28;20306;-84
2022/06/13 08:21:29;;;;;;;6.47;3.38;;;;;;;21.78;57.65;93974.66;5086450;28;20023;-82
2022/06/13 08:23:54;;;;;;;11.13;4.20;;;;;;;21.88;57.54;93989.44;5104563;28;20020;-84
2022/06/13 08:26:20;;;;;;;11.90;4.15;;;;;;;21.91;55.89;93982.47;5086505;28;20310;-83
2022/06/13 08:28:45;;;;;;;7.90;3.47;;;;;;;22.08;55.05;93981.72;5104605;28;20255;-88
2022/06/13 08:31:12;;;;;;;8.40;3.50;;;;;;;22.27;55.47;93982.59;5104525;28;20036;-87
2022/06/13 08:33:39;;;;;;;10.27;5.15;;;;;;;22.40;55.39;93981.06;5104418;28;20203;-87
2022/06/13 08:36:06;;;;;;;11.13;3.58;;;;;;;22.48;53.94;93988.06;5104347;28;20226;-83
2022/06/13 08:38:31;;;;;;;14.30;3.70;;;;;;;22.64;53.37;93991.19;5104137;28;20027;-84
2022/06/13 08:41:06;;;;;;;6.25;3.42;;;;;;;22.70;53.19;93990.84;5086012;28;20012;-83
2022/06/13 08:43:50;;;;;;;9.25;4.25;;;;;;;22.69;54.21;93991.97;5104185;28;20210;-84
2022/06/13 08:46:18;;;;;;;8.02;4.22;;;;;;;22.83;53.42;93986.56;5104111;28;20030;-82
2022/06/13 08:48:45;;;;;;;7.88;3.67;;;;;;;22.88;53.01;93991.63;5104298;28;20035;-84
2022/06/13 08:51:19;;;;;;;6.68;3.97;;;;;;;23.03;52.73;93979.59;5104170;28;20024;-83
2022/06/13 08:54:01;;;;;;;7.57;4.18;;;;;;;23.09;51.47;93987.38;5103847;28;20020;-84
2022/06/13 08:56:31;;;;;;;7.28;4.53;;;;;;;22.92;52.04;93978.00;5103932;28;20322;-85
2022/06/13 08:59:22;;;;;;;6.38;3.78;;;;;;;23.02;53.41;93982.72;5103799;28;20028;-83
2022/06/13 09:01:51;;;;;;;22.42;4.55;;;;;;;23.18;53.00;93974.13;5103968;28;20054;-83
2022/06/13 09:04:41;;;;;;;5.30;3.30;;;;;;;23.24;51.94;93986.16;5103698;28;20091;-84
2022/06/13 09:07:09;;;;;;;6.50;3.08;;;;;;;23.41;52.65;93977.22;5085633;28;20031;-86
2022/06/13 09:09:57;;;;;;;5.57;3.70;;;;;;;23.57;52.13;93978.72;5085630;28;20253;-84
2022/06/13 09:12:47;;;;;;;5.45;3.10;;;;;;;23.68;51.47;93976.75;5084881;28;20082;-83
2022/06/13 09:15:18;;;;;;;8.80;3.72;;;;;;;23.87;52.15;93974.78;5103936;28;20086;-82
2022/06/13 09:17:55;;;;;;;5.13;3.70;;;;;;;24.02;51.24;93968.88;5103632;28;20039;-86
2022/06/13 09:20:30;;;;;;;8.02;3.72;;;;;;;24.06;50.14;93973.50;5103646;28;20020;-84
2022/06/13 09:23:17;;;;;;;5.95;3.42;;;;;;;24.05;49.80;93974.69;5085588;28;20098;-84
2022/06/13 09:26:06;;;;;;;5.32;2.92;;;;;;;24.02;50.33;93974.31;5103784;28;20376;-83
2022/06/13 09:28:44;;;;;;;9.63;3.97;;;;;;;23.96;50.38;93969.69;5084931;28;20026;-84
2022/06/13 09:31:19;;;;;;;9.70;3.85;;;;;;;24.00;50.58;93971.22;5103614;28;20218;-83
2022/06/13 09:33:52;;;;;;;7.20;4.00;;;;;;;24.19;50.33;93964.50;5103568;28;20095;-85
2022/06/13 09:36:24;;;;;;;5.60;3.42;;;;;;;24.37;48.98;93958.94;5103194;28;20024;-84
2022/06/13 09:38:59;;;;;;;6.32;3.95;;;;;;;24.59;49.73;93958.84;5085221;28;20027;-86
2022/06/13 09:41:49;;;;;;;5.28;3.35;;;;;;;24.74;49.25;93963.00;5102877;28;20245;-88
2022/06/13 09:44:44;;;;;;;7.10;4.03;;;;;;;24.84;48.56;93958.66;5103435;28;20054;-88
2022/06/13 09:47:44;;;;;;;10.20;3.90;;;;;;;24.99;48.16;93962.03;5103432;28;20028;-85
2022/06/13 09:50:25;;;;;;;8.73;3.95;;;;;;;25.03;46.38;93960.84;5102946;28;20020;-84
2022/06/13 09:52:50;;;;;;;8.23;4.05;;;;;;;25.22;46.64;93950.56;5103347;28;20331;-87
2022/06/13 09:55:44;;;;;;;8.02;3.75;;;;;;;25.40;47.49;93958.56;5103309;28;20050;-85
2022/06/13 09:58:37;;;;;;;6.32;3.70;;;;;;;25.52;47.03;93958.03;5085290;28;20020;-83
2022/06/13 10:02:04;;;;;;;6.28;3.53;;;;;;;25.72;46.79;93957.44;5103435;28;20039;-89
2022/06/13 10:04:44;;;;;;;14.63;3.78;;;;;;;25.74;46.09;93953.13;5021232;28;20331;-84
2022/06/13 10:07:21;;;;;;;5.93;3.67;;;;;;;25.66;46.36;93951.66;5020672;28;20064;-84
2022/06/13 10:09:55;;;;;;;8.43;4.07;;;;;;;25.67;46.23;93952.44;5054917;28;20064;-83
2022/06/13 10:12:21;;;;;;;8.10;4.28;;;;;;;25.47;46.74;93955.75;5102496;28;20031;-83
2022/06/13 10:14:58;;;;;;;9.95;4.10;;;;;;;25.58;47.02;93953.69;5102452;28;20016;-85
2022/06/13 10:17:32;;;;;;;9.10;4.32;;;;;;;25.62;44.52;93956.38;5102712;28;20024;-84
2022/06/13 10:20:15;;;;;;;7.80;3.58;;;;;;;25.58;46.48;93944.72;5102736;28;20091;-84
2022/06/13 10:23:16;;;;;;;5.47;3.45;;;;;;;25.66;47.31;93957.13;5102708;28;20028;-85
2022/06/13 10:25:52;;;;;;;9.75;3.65;;;;;;;25.82;46.69;93943.66;5084822;28;20058;-84
2022/06/13 10:28:31;;;;;;;10.07;3.45;;;;;;;25.98;45.44;93948.56;5109234;28;20020;-83
2022/06/13 10:31:23;;;;;;;10.45;3.70;;;;;;;26.05;43.81;93939.50;5102581;28;20050;-83
2022/06/13 10:34:05;;;;;;;5.40;3.67;;;;;;;25.95;44.46;93933.03;5091169;28;20107;-83
2022/06/13 10:36:39;;;;;;;5.80;3.95;;;;;;;25.85;45.23;93938.56;5102041;28;20326;-83
2022/06/13 10:39:15;;;;;;;8.88;4.05;;;;;;;25.82;45.88;93938.19;5083992;28;20019;-83
2022/06/13 10:41:47;;;;;;;7.90;3.60;;;;;;;25.83;46.64;93928.06;5084112;28;20204;-83
2022/06/13 10:44:16;;;;;;;6.28;3.83;;;;;;;25.92;46.12;93931.09;5102210;28;20125;-83
2022/06/13 10:46:53;;;;;;;8.63;3.70;;;;;;;26.07;44.76;93915.28;5102282;28;20012;-79
2022/06/13 10:49:22;;;;;;;10.55;4.10;;;;;;;26.22;44.43;93922.13;5102244;28;20031;-84
2022/06/13 10:51:48;;;;;;;13.93;4.20;;;;;;;26.41;44.39;93917.94;5084186;28;20030;-83
2022/06/13 10:54:20;;;;;;;6.25;3.67;;;;;;;26.57;43.45;93916.53;5103633;28;20024;-83
2022/06/13 10:56:53;;;;;;;8.95;3.78;;;;;;;26.64;43.12;93916.44;5106101;28;20252;-84
2022/06/13 10:59:32;;;;;;;9.40;4.47;;;;;;;26.65;42.02;93914.50;5106052;28;20338;-84
2022/06/13 11:02:03;;;;;;;6.75;3.55;;;;;;;26.64;44.75;93904.75;5105562;28;20012;-82
2022/06/13 11:04:34;;;;;;;4.70;3.45;;;;;;;26.69;42.18;93901.56;5106211;28;20266;-82
2022/06/13 11:07:12;;;;;;;11.55;4.10;;;;;;;26.58;42.58;93896.25;5105915;28;20032;-85
2022/06/13 11:09:45;;;;;;;5.55;3.70;;;;;;;26.36;44.21;93888.34;5106127;28;20265;-85
2022/06/13 11:12:23;;;;;;;6.72;3.85;;;;;;;26.34;43.77;93885.25;5105898;28;20054;-86
2022/06/13 11:23:35;;;;;;;8.05;4.20;;;;;;;26.36;42.73;93865.72;5105877;28;20023;-85
2022/06/13 11:26:02;;;;;;;10.32;4.05;;;;;;;26.23;42.07;93863.53;5105823;28;20065;-83
2022/06/13 11:28:39;;;;;;;5.63;4.00;;;;;;;26.32;43.08;93862.28;5105611;28;20327;-83
2022/06/13 11:31:10;;;;;;;7.40;4.20;;;;;;;26.52;42.67;93854.13;5105435;28;20032;-85
2022/06/13 11:33:40;;;;;;;10.52;5.13;;;;;;;26.74;42.93;93847.16;5105638;28;20051;-85
2022/06/13 11:36:14;;;;;;;10.75;4.82;;;;;;;26.95;40.58;93851.50;5105574;28;20036;-84
2022/06/13 11:39:01;;;;;;;14.20;5.20;;;;;;;26.99;41.15;93857.66;5105507;28;20307;-84
2022/06/13 11:41:40;;;;;;;14.00;7.97;;;;;;;26.74;41.09;93849.13;5105371;28;20227;-85
2022/06/13 11:44:07;;;;;;;11.93;7.35;;;;;;;26.67;41.06;93850.03;5087200;28;20044;-86
2022/06/13 11:46:54;;;;;;;10.18;4.88;;;;;;;26.51;41.70;93845.19;5105598;28;20141;-87
2022/06/13 11:49:32;;;;;;;12.05;4.53;;;;;;;26.39;44.33;93840.31;5105526;28;20032;-87
2022/06/13 11:55:17;;;;;;;12.77;4.70;;;;;;;26.53;42.91;93842.03;5106068;28;20026;-91
2022/06/13 11:57:42;;;;;;;13.30;4.38;;;;;;;26.56;42.15;93839.25;5105483;28;20024;-88
2022/06/13 12:00:18;;;;;;;7.18;4.80;;;;;;;26.60;41.34;93837.25;5105084;28;20035;-87
2022/06/13 12:02:49;;;;;;;9.35;4.88;;;;;;;26.87;42.39;93839.13;5105266;28;20026;-83
2022/06/13 12:05:32;;;;;;;7.60;4.60;;;;;;;27.33;42.56;93831.28;5086892;28;20024;-83
2022/06/13 12:08:03;;;;;;;6.53;3.95;;;;;;;27.75;40.67;93835.09;5104822;28;20325;-83
2022/06/13 12:10:35;;;;;;;9.05;4.68;;;;;;;28.20;39.95;93822.78;5104669;28;20020;-82
2022/06/13 12:13:01;;;;;;;7.13;4.78;;;;;;;28.49;37.75;93825.59;5104377;28;20028;-83
2022/06/13 12:15:36;;;;;;;8.52;4.53;;;;;;;28.71;36.78;93827.84;5104641;28;20020;-82
2022/06/13 12:18:17;;;;;;;11.27;5.18;;;;;;;28.71;35.93;93808.66;5086639;28;20119;-82
2022/06/13 12:21:02;;;;;;;13.98;4.50;;;;;;;28.70;36.17;93821.63;5104517;28;20023;-82